KMSS/MSS METAR and TAF weather

Enter ICAO airport designator
Station Type Date Time Source
KMSS METAR 2022/01/26 12:53 UTC NOAA

KMSS 261253Z AUTO 00000KT 10SM CLR M29/M33 A3043 RMK AO2 SLP318 I1000 T12941328


Station Type Date Time Source
KMSS Decoded METAR 2022/01/26 12:53 UTC NOAA

MASSENA INTERNATIONAL -RICHARDS FLD, NY, United States (KMSS) 44-56N 074-51W 66M
Jan 26, 2022 - 07:53 AM EST / 2022.01.26 1253 UTC
Wind: Calm:0
Visibility: 10 mile(s):0
Sky conditions: clear
Temperature: -20.9 F (-29.4 C)
Dew Point: -27.0 F (-32.8 C)
Relative Humidity: 72%
Pressure (altimeter): 30.43 in. Hg (1030 hPa)
ob: KMSS 261253Z AUTO 00000KT 10SM CLR M29/M33 A3043 RMK AO2 SLP318 I1000 T12941328
cycle: 13

Station Type Date Time Source
KMSS TAF 2022/01/26 12:36 UTC NOAA

TAF KMSS 261134Z 2612/2712 VRB03KT P6SM FEW250

Example: see airport list